createdAt,value
2019-04-20T00:01:07.472Z,15.40
2019-04-20T00:03:41.749Z,15.30
2019-04-20T00:06:09.167Z,15.20
2019-04-20T00:08:41.160Z,15.20
2019-04-20T00:11:16.298Z,15.00
2019-04-20T00:13:50.379Z,15.00
2019-04-20T00:16:16.609Z,15.00
2019-04-20T00:18:50.313Z,14.90
2019-04-20T00:21:38.854Z,14.90
2019-04-20T00:24:14.809Z,14.80
2019-04-20T00:27:11.730Z,15.00
2019-04-20T00:29:30.989Z,14.80
2019-04-20T00:31:58.364Z,14.80
2019-04-20T00:34:24.195Z,14.80
2019-04-20T00:36:45.381Z,14.80
2019-04-20T00:39:16.525Z,14.70
2019-04-20T00:41:51.419Z,14.50
2019-04-20T00:44:24.251Z,14.40
2019-04-20T00:47:06.878Z,14.50
2019-04-20T00:49:31.001Z,14.30
2019-04-20T00:52:18.684Z,14.20
2019-04-20T00:54:20.218Z,14.00
2019-04-20T00:56:49.876Z,13.90
2019-04-20T00:59:31.682Z,14.10
2019-04-20T01:02:10.886Z,14.00
2019-04-20T01:04:46.218Z,14.00
2019-04-20T01:07:12.347Z,14.00
2019-04-20T01:10:05.036Z,13.80
2019-04-20T01:12:37.451Z,13.80
2019-04-20T01:15:11.120Z,13.60
2019-04-20T01:17:41.649Z,13.60
2019-04-20T01:20:10.226Z,13.60
2019-04-20T01:22:44.351Z,13.50
2019-04-20T01:25:19.571Z,13.50
2019-04-20T01:28:02.162Z,13.60
2019-04-20T01:30:23.612Z,13.60
2019-04-20T01:32:59.923Z,13.60
2019-04-20T01:35:35.580Z,13.50
2019-04-20T01:38:06.960Z,13.50
2019-04-20T01:40:19.119Z,13.20
2019-04-20T01:42:49.009Z,13.40
2019-04-20T01:45:26.837Z,13.20
2019-04-20T01:47:53.081Z,13.00
2019-04-20T01:50:26.119Z,13.00
2019-04-20T01:53:01.782Z,13.20
2019-04-20T01:55:50.635Z,13.40
2019-04-20T01:58:42.128Z,13.10
2019-04-20T02:01:30.915Z,12.90
2019-04-20T02:04:27.097Z,12.80
2019-04-20T02:06:55.277Z,12.80
2019-04-20T02:09:26.053Z,12.80
2019-04-20T02:11:55.074Z,12.60
2019-04-20T02:14:32.110Z,12.50
2019-04-20T02:17:05.400Z,12.40
2019-04-20T02:19:37.859Z,12.60
2019-04-20T02:22:09.813Z,12.50
2019-04-20T02:24:27.925Z,12.40
2019-04-20T02:26:57.889Z,12.50
2019-04-20T02:30:07.511Z,12.50
2019-04-20T02:32:32.260Z,12.40
2019-04-20T02:35:15.990Z,12.50
2019-04-20T02:38:02.979Z,12.50
2019-04-20T02:45:34.727Z,12.10
2019-04-20T02:48:01.613Z,12.10
2019-04-20T02:50:44.238Z,12.20
2019-04-20T02:55:31.732Z,12.20
2019-04-20T02:58:00.689Z,12.20
2019-04-20T03:00:31.418Z,11.80
2019-04-20T03:02:48.918Z,11.20
2019-04-20T03:05:22.999Z,10.90
2019-04-20T03:07:58.641Z,10.90
2019-04-20T03:10:43.401Z,10.90
2019-04-20T03:13:04.167Z,10.90
2019-04-20T03:15:32.784Z,11.20
2019-04-20T03:18:08.793Z,11.30
2019-04-20T03:20:46.015Z,11.30
2019-04-20T03:26:00.727Z,11.50
2019-04-20T03:28:45.398Z,11.50
2019-04-20T03:34:13.433Z,11.70
2019-04-20T03:36:25.181Z,11.70
2019-04-20T03:38:49.676Z,11.70
2019-04-20T03:41:13.976Z,11.60
2019-04-20T03:43:33.347Z,11.50
2019-04-20T03:46:07.813Z,11.40
2019-04-20T03:48:46.869Z,11.30
2019-04-20T03:51:30.602Z,11.30
2019-04-20T03:54:12.505Z,11.40
2019-04-20T03:56:57.094Z,11.20
2019-04-20T03:59:43.677Z,11.20
2019-04-20T04:02:49.296Z,11.10
2019-04-20T04:05:05.498Z,11.00
2019-04-20T04:07:26.829Z,11.00
2019-04-20T04:10:07.694Z,11.10
2019-04-20T04:12:58.893Z,10.80
2019-04-20T04:15:29.578Z,10.50
2019-04-20T04:18:09.740Z,10.40
2019-04-20T04:20:38.450Z,10.70
2019-04-20T04:23:19.474Z,10.80
2019-04-20T04:25:53.122Z,10.80
2019-04-20T04:28:22.305Z,10.80
2019-04-20T04:30:56.315Z,10.90
2019-04-20T04:33:48.985Z,10.90
2019-04-20T04:35:55.312Z,10.90
2019-04-20T04:38:36.289Z,10.70
2019-04-20T04:41:09.933Z,10.80
2019-04-20T04:43:36.300Z,10.70
2019-04-20T04:45:42.694Z,10.70
2019-04-20T04:48:18.356Z,10.70
2019-04-20T04:50:52.107Z,10.90
2019-04-20T04:53:28.919Z,10.80
2019-04-20T04:55:54.868Z,10.90
2019-04-20T04:58:17.335Z,10.90
2019-04-20T05:00:46.816Z,10.80
2019-04-20T05:03:35.802Z,10.80
2019-04-20T05:06:06.682Z,10.60
2019-04-20T05:08:31.669Z,10.70
2019-04-20T05:10:56.174Z,10.80
2019-04-20T05:13:32.968Z,10.90
2019-04-20T05:16:07.546Z,11.00
2019-04-20T05:18:55.113Z,11.10
2019-04-20T05:21:39.780Z,11.10
2019-04-20T05:24:22.616Z,11.10
2019-04-20T05:27:09.412Z,11.20
2019-04-20T05:29:19.702Z,11.40
2019-04-20T05:31:52.522Z,11.30
2019-04-20T05:34:40.069Z,11.40
2019-04-20T05:37:18.015Z,11.50
2019-04-20T05:39:38.228Z,11.40
2019-04-20T05:42:12.693Z,11.40
2019-04-20T05:44:41.539Z,11.50
2019-04-20T05:47:13.665Z,11.60
2019-04-20T05:49:40.269Z,11.60
2019-04-20T05:52:24.146Z,11.70
2019-04-20T05:54:44.688Z,11.80
2019-04-20T05:57:23.611Z,11.90
2019-04-20T05:59:55.719Z,12.00
2019-04-20T06:02:23.293Z,12.10
2019-04-20T06:05:03.230Z,12.20
2019-04-20T06:07:21.190Z,12.30
2019-04-20T06:09:54.472Z,12.40
2019-04-20T06:12:22.357Z,12.50
2019-04-20T06:14:58.492Z,12.60
2019-04-20T06:18:02.505Z,12.70
2019-04-20T06:23:34.601Z,13.20
2019-04-20T06:26:15.913Z,13.30
2019-04-20T06:28:26.797Z,13.50
2019-04-20T06:30:52.115Z,13.60
2019-04-20T06:39:16.310Z,14.20
2019-04-20T06:42:02.335Z,14.30
2019-04-20T06:44:16.423Z,14.80
2019-04-20T06:46:52.451Z,15.30
2019-04-20T06:49:22.411Z,15.50
2019-04-20T06:51:52.879Z,15.90
2019-04-20T06:54:15.871Z,16.10
2019-04-20T06:57:01.242Z,16.40
2019-04-20T06:59:31.847Z,16.60
2019-04-20T07:04:43.154Z,17.00
2019-04-20T07:07:18.489Z,17.20
2019-04-20T07:15:36.573Z,17.50
2019-04-20T07:18:24.624Z,17.40
2019-04-20T07:21:05.833Z,17.70
2019-04-20T07:23:41.913Z,17.80
2019-04-20T07:26:16.576Z,17.70
2019-04-20T07:28:49.360Z,18.10
2019-04-20T07:31:06.759Z,18.40
2019-04-20T07:33:49.559Z,18.30
2019-04-20T07:36:19.869Z,18.60
2019-04-20T07:38:50.034Z,18.50
2019-04-20T07:41:23.623Z,18.70
2019-04-20T07:43:52.999Z,19.20
2019-04-20T07:46:23.872Z,19.20
2019-04-20T07:48:49.084Z,19.50
2019-04-20T07:51:08.168Z,19.50
2019-04-20T07:53:40.324Z,19.80
2019-04-20T07:56:23.631Z,20.10
2019-04-20T07:58:38.820Z,19.90
2019-04-20T08:01:47.832Z,20.00
2019-04-20T08:04:13.294Z,20.40
2019-04-20T08:06:40.761Z,20.00
2019-04-20T08:09:17.249Z,20.10
2019-04-20T08:11:54.935Z,20.30
2019-04-20T08:14:24.226Z,20.80
2019-04-20T08:17:09.703Z,21.20
2019-04-20T08:19:23.506Z,21.80
2019-04-20T08:22:03.824Z,21.60
2019-04-20T08:24:21.358Z,21.40
2019-04-20T08:26:46.333Z,21.90
2019-04-20T08:29:42.803Z,21.60
2019-04-20T08:32:25.915Z,22.00
2019-04-20T08:35:02.258Z,22.30
2019-04-20T08:37:26.833Z,22.60
2019-04-20T08:40:02.855Z,23.00
2019-04-20T08:42:30.451Z,23.20
2019-04-20T08:45:03.835Z,23.20
2019-04-20T08:47:42.304Z,23.50
2019-04-20T08:50:15.913Z,23.50
2019-04-20T08:53:03.610Z,23.70
2019-04-20T08:55:12.252Z,22.60
2019-04-20T08:57:25.103Z,22.90
2019-04-20T08:59:55.954Z,23.10
2019-04-20T09:02:25.877Z,24.00
2019-04-20T09:05:02.529Z,24.50
2019-04-20T09:07:28.849Z,24.50
2019-04-20T09:10:25.609Z,24.70
2019-04-20T09:12:48.868Z,24.00
2019-04-20T09:14:59.446Z,24.50
2019-04-20T09:17:57.120Z,24.80
2019-04-20T09:20:31.879Z,24.70
2019-04-20T09:23:13.227Z,24.80
2019-04-20T09:25:53.605Z,25.10
2019-04-20T09:28:21.559Z,24.80
2019-04-20T09:30:47.822Z,25.10
2019-04-20T09:33:39.875Z,24.70
2019-04-20T09:36:15.302Z,25.00
2019-04-20T09:39:00.142Z,25.40
2019-04-20T09:41:46.839Z,25.50
2019-04-20T09:43:58.253Z,25.60
2019-04-20T09:46:32.860Z,25.80
2019-04-20T09:49:02.697Z,26.30
2019-04-20T09:51:43.639Z,26.60
2019-04-20T09:54:18.634Z,26.70
2019-04-20T09:56:49.685Z,26.70
2019-04-20T09:59:25.137Z,26.90
2019-04-20T10:01:41.927Z,26.80
2019-04-20T10:04:03.921Z,25.50
2019-04-20T10:06:35.888Z,25.60
2019-04-20T10:09:07.259Z,25.50
2019-04-20T10:11:37.590Z,25.40
2019-04-20T10:14:08.236Z,25.60
2019-04-20T10:16:37.931Z,25.50
2019-04-20T10:19:10.497Z,25.20
2019-04-20T10:21:38.271Z,25.30
2019-04-20T10:24:08.457Z,25.00
2019-04-20T10:26:38.679Z,25.40
2019-04-20T10:29:08.037Z,26.50
2019-04-20T10:31:42.584Z,26.50
2019-04-20T10:34:09.374Z,26.00
2019-04-20T10:36:57.671Z,26.80
2019-04-20T10:39:28.678Z,27.00
2019-04-20T10:42:02.148Z,26.70
2019-04-20T10:44:29.322Z,26.60
2019-04-20T10:46:58.792Z,26.40
2019-04-20T10:49:29.150Z,26.50
2019-04-20T10:51:59.826Z,27.20
2019-04-20T10:54:30.245Z,27.80
2019-04-20T10:56:59.534Z,27.40
2019-04-20T10:59:29.702Z,27.80
2019-04-20T11:01:58.957Z,27.40
2019-04-20T11:04:28.545Z,27.40
2019-04-20T11:06:58.674Z,28.10
2019-04-20T11:09:29.056Z,27.80
2019-04-20T11:11:58.752Z,26.90
2019-04-20T11:14:31.984Z,27.70
2019-04-20T11:16:58.715Z,27.70
2019-04-20T11:19:27.782Z,28.00
2019-04-20T11:21:56.968Z,28.20
2019-04-20T11:24:26.163Z,28.00
2019-04-20T11:26:56.202Z,28.70
2019-04-20T11:29:26.380Z,28.70
2019-04-20T11:31:56.464Z,28.90
2019-04-20T11:34:29.901Z,28.80
2019-04-20T11:36:59.143Z,28.70
2019-04-20T11:39:29.232Z,28.60
2019-04-20T11:41:59.495Z,29.00
2019-04-20T11:44:31.463Z,29.40
2019-04-20T11:47:00.630Z,29.10
2019-04-20T11:49:31.236Z,28.70
2019-04-20T11:52:01.502Z,28.60
2019-04-20T11:54:30.772Z,28.10
2019-04-20T11:56:59.896Z,28.30
2019-04-20T11:59:30.410Z,28.00
2019-04-20T12:02:10.744Z,28.70
2019-04-20T12:04:49.970Z,28.30
2019-04-20T12:07:15.019Z,28.80
2019-04-20T12:09:44.582Z,29.30
2019-04-20T12:12:24.403Z,29.30
2019-04-20T12:14:46.333Z,28.90
2019-04-20T12:17:15.635Z,28.70
2019-04-20T12:19:45.901Z,29.00
2019-04-20T12:22:16.001Z,28.40
2019-04-20T12:24:45.154Z,27.50
2019-04-20T12:27:14.650Z,28.40
2019-04-20T12:29:43.880Z,29.10
2019-04-20T12:32:12.865Z,29.60
2019-04-20T12:34:43.349Z,30.50
2019-04-20T12:37:13.308Z,30.80
2019-04-20T12:39:42.900Z,31.00
2019-04-20T12:42:13.014Z,30.50
2019-04-20T12:44:42.206Z,29.80
2019-04-20T12:47:12.013Z,30.20
2019-04-20T12:49:43.353Z,30.00
2019-04-20T12:52:12.639Z,30.70
2019-04-20T12:54:44.235Z,31.50
2019-04-20T12:57:12.531Z,31.20
2019-04-20T12:59:44.364Z,30.00
2019-04-20T13:02:13.438Z,29.20
2019-04-20T13:04:43.548Z,29.40
2019-04-20T13:07:13.136Z,29.20
2019-04-20T13:09:50.934Z,29.30
2019-04-20T13:12:30.408Z,28.80
2019-04-20T13:15:46.773Z,28.00
2019-04-20T13:18:19.079Z,28.10
2019-04-20T13:20:48.154Z,28.50
2019-04-20T13:23:23.223Z,28.80
2019-04-20T13:25:59.599Z,28.80
2019-04-20T13:28:28.939Z,28.70
2019-04-20T13:30:57.968Z,27.90
2019-04-20T13:33:27.292Z,28.30
2019-04-20T13:35:56.563Z,28.00
2019-04-20T13:38:25.919Z,28.20
2019-04-20T13:40:55.735Z,27.90
2019-04-20T13:43:25.821Z,27.80
2019-04-20T13:45:55.192Z,27.90
2019-04-20T13:48:24.793Z,27.40
2019-04-20T13:50:54.023Z,27.70
2019-04-20T13:53:23.476Z,27.40
2019-04-20T13:55:52.773Z,27.20
2019-04-20T13:58:41.003Z,27.40
2019-04-20T14:01:35.324Z,26.90
2019-04-20T14:04:12.739Z,26.50
2019-04-20T14:06:43.491Z,26.70
2019-04-20T14:09:13.182Z,26.70
2019-04-20T14:11:43.435Z,26.90
2019-04-20T14:14:13.146Z,26.90
2019-04-20T14:16:43.059Z,26.70
2019-04-20T14:19:14.214Z,26.70
2019-04-20T14:21:44.002Z,26.50
2019-04-20T14:24:13.196Z,26.80
2019-04-20T14:26:44.103Z,26.60
2019-04-20T14:29:13.147Z,26.90
2019-04-20T14:31:42.287Z,27.30
2019-04-20T14:34:11.407Z,27.40
2019-04-20T14:36:41.238Z,27.50
2019-04-20T14:39:10.321Z,27.50
2019-04-20T14:41:40.360Z,27.60
2019-04-20T14:44:09.952Z,27.10
2019-04-20T14:46:39.969Z,27.00
2019-04-20T14:49:10.329Z,27.00
2019-04-20T14:51:39.668Z,27.00
2019-04-20T14:54:09.647Z,27.30
2019-04-20T14:56:38.868Z,27.60
2019-04-20T14:59:31.682Z,27.30
2019-04-20T15:02:08.442Z,27.40
2019-04-20T15:04:39.073Z,27.40
2019-04-20T15:07:08.739Z,27.40
2019-04-20T15:09:39.365Z,27.40
2019-04-20T15:12:09.094Z,26.80
2019-04-20T15:14:38.682Z,26.90
2019-04-20T15:17:10.920Z,26.80
2019-04-20T15:20:05.641Z,26.70
2019-04-20T15:22:39.205Z,26.80
2019-04-20T15:25:09.589Z,27.20
2019-04-20T15:27:42.561Z,26.60
2019-04-20T15:30:09.966Z,26.60
2019-04-20T15:32:39.179Z,26.30
2019-04-20T15:35:09.062Z,25.90
2019-04-20T15:37:39.495Z,26.00
2019-04-20T15:40:10.864Z,25.90
2019-04-20T15:42:51.530Z,25.90
2019-04-20T15:45:11.493Z,25.70
2019-04-20T15:47:40.835Z,25.60
2019-04-20T15:50:11.806Z,25.70
2019-04-20T15:52:46.778Z,26.00
2019-04-20T15:55:24.023Z,25.90
2019-04-20T15:57:42.724Z,25.90
2019-04-20T16:00:11.934Z,25.90
2019-04-20T16:03:07.413Z,25.90
2019-04-20T16:05:58.937Z,25.80
2019-04-20T16:08:34.395Z,25.90
2019-04-20T16:11:04.926Z,25.50
2019-04-20T16:13:39.519Z,25.40
2019-04-20T16:16:07.686Z,25.40
2019-04-20T16:18:37.219Z,25.30
2019-04-20T16:21:13.236Z,25.40
2019-04-20T16:23:48.569Z,25.50
2019-04-20T16:26:25.902Z,25.50
2019-04-20T16:28:55.519Z,25.60
2019-04-20T16:31:24.672Z,25.70
2019-04-20T16:33:56.782Z,25.60
2019-04-20T16:36:24.580Z,25.70
2019-04-20T16:38:53.702Z,25.80
2019-04-20T16:41:24.268Z,25.80
2019-04-20T16:43:53.621Z,25.90
2019-04-20T16:46:25.593Z,26.00
2019-04-20T16:48:53.269Z,26.30
2019-04-20T16:51:22.910Z,25.90
2019-04-20T16:53:52.214Z,26.00
2019-04-20T16:56:22.328Z,25.80
2019-04-20T16:58:54.744Z,25.40
2019-04-20T17:01:23.451Z,25.70
2019-04-20T17:04:02.157Z,25.40
2019-04-20T17:06:24.243Z,25.00
2019-04-20T17:08:54.602Z,24.70
2019-04-20T17:11:23.869Z,24.80
2019-04-20T17:13:56.228Z,24.80
2019-04-20T17:16:23.899Z,24.50
2019-04-20T17:18:52.990Z,24.30
2019-04-20T17:21:25.850Z,24.00
2019-04-20T17:23:53.208Z,23.60
2019-04-20T17:26:31.020Z,23.40
2019-04-20T17:29:13.847Z,23.30
2019-04-20T17:32:01.024Z,23.20
2019-04-20T17:34:46.822Z,23.20
2019-04-20T17:37:02.294Z,23.10
2019-04-20T17:39:45.522Z,23.10
2019-04-20T17:42:17.185Z,23.00
2019-04-20T17:44:46.834Z,22.90
2019-04-20T17:47:29.116Z,22.80
2019-04-20T17:49:57.605Z,22.50
2019-04-20T17:52:27.716Z,22.60
2019-04-20T17:54:43.220Z,22.50
2019-04-20T17:57:13.130Z,22.30
2019-04-20T17:59:53.271Z,22.30
2019-04-20T18:03:00.624Z,22.20
2019-04-20T18:05:55.205Z,22.20
2019-04-20T18:08:26.442Z,22.30
2019-04-20T18:10:45.664Z,22.20
2019-04-20T18:13:12.109Z,22.10
2019-04-20T18:15:54.093Z,21.90
2019-04-20T18:18:46.484Z,21.90
2019-04-20T18:21:08.607Z,21.80
2019-04-20T18:23:41.849Z,21.80
2019-04-20T18:26:30.601Z,21.80
2019-04-20T18:29:04.880Z,21.90
2019-04-20T18:31:31.389Z,21.80
2019-04-20T18:34:11.337Z,21.60
2019-04-20T18:36:41.323Z,21.50
2019-04-20T18:39:13.260Z,21.30
2019-04-20T18:41:46.535Z,21.30
2019-04-20T18:44:12.772Z,21.30
2019-04-20T18:47:07.102Z,21.20
2019-04-20T18:49:28.242Z,21.20
2019-04-20T18:51:46.036Z,21.10
2019-04-20T18:54:21.346Z,21.10
2019-04-20T18:56:50.825Z,21.00
2019-04-20T18:59:19.061Z,20.90
2019-04-20T19:01:49.155Z,20.90
2019-04-20T19:04:19.712Z,20.80
2019-04-20T19:06:50.071Z,20.70
2019-04-20T19:09:25.044Z,20.60
2019-04-20T19:11:56.512Z,20.50
2019-04-20T19:14:44.230Z,20.40
2019-04-20T19:17:49.342Z,20.30
2019-04-20T19:20:23.835Z,20.10
2019-04-20T19:22:52.405Z,20.10
2019-04-20T19:25:27.337Z,20.00
2019-04-20T19:27:55.972Z,19.90
2019-04-20T19:30:35.452Z,19.80
2019-04-20T19:33:14.732Z,19.70
2019-04-20T19:35:40.615Z,19.70
2019-04-20T19:38:09.174Z,19.50
2019-04-20T19:40:38.542Z,19.50
2019-04-20T19:43:12.888Z,19.50
2019-04-20T19:45:56.910Z,19.40
2019-04-20T19:48:20.510Z,19.30
2019-04-20T19:50:59.263Z,19.40
2019-04-20T19:53:26.107Z,19.20
2019-04-20T19:55:47.746Z,19.20
2019-04-20T19:58:16.296Z,18.90
2019-04-20T20:00:48.378Z,19.00
2019-04-20T20:03:15.781Z,19.10
2019-04-20T20:05:48.326Z,19.00
2019-04-20T20:08:20.916Z,19.00
2019-04-20T20:10:48.317Z,19.10
2019-04-20T20:13:18.462Z,18.90
2019-04-20T20:15:49.078Z,18.90
2019-04-20T20:18:33.024Z,18.80
2019-04-20T20:21:04.509Z,18.70
2019-04-20T20:23:20.682Z,18.60
2019-04-20T20:25:51.446Z,18.50
2019-04-20T20:28:31.864Z,18.60
2019-04-20T20:31:06.031Z,18.40
2019-04-20T20:33:41.179Z,18.20
2019-04-20T20:36:03.685Z,18.20
2019-04-20T20:38:35.200Z,18.20
2019-04-20T20:41:05.721Z,18.10
2019-04-20T20:43:42.457Z,18.00
2019-04-20T20:46:12.382Z,18.00
2019-04-20T20:48:46.862Z,18.10
2019-04-20T20:51:17.772Z,18.00
2019-04-20T20:53:43.114Z,18.00
2019-04-20T20:56:11.993Z,17.90
2019-04-20T20:58:46.713Z,17.80
2019-04-20T21:01:14.441Z,17.70
2019-04-20T21:03:42.070Z,17.60
2019-04-20T21:06:07.554Z,17.60
2019-04-20T21:08:44.891Z,17.50
2019-04-20T21:11:13.238Z,17.60
2019-04-20T21:13:42.655Z,17.60
2019-04-20T21:16:15.396Z,17.40
2019-04-20T21:18:55.619Z,17.40
2019-04-20T21:21:20.377Z,17.40
2019-04-20T21:23:50.800Z,17.40
2019-04-20T21:26:21.658Z,17.40
2019-04-20T21:28:44.312Z,17.40
2019-04-20T21:31:18.562Z,17.20
2019-04-20T21:33:44.906Z,17.10
2019-04-20T21:36:19.187Z,17.10
2019-04-20T21:38:46.468Z,17.10
2019-04-20T21:41:18.615Z,17.00
2019-04-20T21:43:48.111Z,17.10
2019-04-20T21:46:18.639Z,17.00
2019-04-20T21:48:59.698Z,16.90
2019-04-20T21:51:30.493Z,16.80
2019-04-20T21:53:49.763Z,16.70
2019-04-20T21:56:19.778Z,16.70
2019-04-20T21:58:54.636Z,16.60
2019-04-20T22:01:28.380Z,16.50
2019-04-20T22:03:52.402Z,16.50
2019-04-20T22:06:22.431Z,16.50
2019-04-20T22:08:57.126Z,16.40
2019-04-20T22:11:23.963Z,16.40
2019-04-20T22:13:54.602Z,16.40
2019-04-20T22:16:31.283Z,16.20
2019-04-20T22:19:14.529Z,16.30
2019-04-20T22:21:38.481Z,16.10
2019-04-20T22:24:09.447Z,16.20
2019-04-20T22:26:39.427Z,16.10
2019-04-20T22:29:00.440Z,16.10
2019-04-20T22:31:31.852Z,15.70
2019-04-20T22:34:11.594Z,15.80
2019-04-20T22:36:37.946Z,15.80
2019-04-20T22:39:12.214Z,15.70
2019-04-20T22:41:52.449Z,15.60
2019-04-20T22:44:20.410Z,15.70
2019-04-20T22:46:47.799Z,15.60
2019-04-20T22:49:33.127Z,15.70
2019-04-20T22:52:02.778Z,15.60
2019-04-20T22:54:39.686Z,15.50
2019-04-20T22:57:08.733Z,15.50
2019-04-20T22:59:38.517Z,15.60
2019-04-20T23:02:01.110Z,15.50
2019-04-20T23:04:30.765Z,15.40
2019-04-20T23:07:00.934Z,15.40
2019-04-20T23:09:32.843Z,15.40
2019-04-20T23:12:08.079Z,15.50
2019-04-20T23:14:34.213Z,15.30
2019-04-20T23:17:04.261Z,15.40
2019-04-20T23:19:42.810Z,15.40
2019-04-20T23:22:08.520Z,15.30
2019-04-20T23:24:37.348Z,14.90
2019-04-20T23:27:13.937Z,15.00
2019-04-20T23:29:41.412Z,14.70
2019-04-20T23:32:12.115Z,14.70
2019-04-20T23:34:41.004Z,14.80
2019-04-20T23:37:19.586Z,14.80
2019-04-20T23:39:45.309Z,14.70
2019-04-20T23:42:17.900Z,14.40
2019-04-20T23:45:07.518Z,14.40
2019-04-20T23:47:56.044Z,14.50
2019-04-20T23:50:40.993Z,14.50
2019-04-20T23:53:14.097Z,14.50
2019-04-20T23:55:25.665Z,14.40
2019-04-20T23:58:01.284Z,14.30
